sensor_id;sensor_type;location;lat;lon;timestamp;pressure;altitude;pressure_sealevel;temperature;humidity
58311;BME280;45001;52.218;5.154;2022-09-03T00:00:14;101210.66;;;23.29;47.09
58311;BME280;45001;52.218;5.154;2022-09-03T00:05:36;101207.94;;;23.29;47.13
58311;BME280;45001;52.218;5.154;2022-09-03T00:08:29;101213.59;;;23.27;46.91
58311;BME280;45001;52.218;5.154;2022-09-03T00:11:02;101210.88;;;23.27;47.02
58311;BME280;45001;52.218;5.154;2022-09-03T00:13:36;101210.88;;;23.27;46.96
58311;BME280;45001;52.218;5.154;2022-09-03T00:16:06;101208.16;;;23.27;47.00
58311;BME280;45001;52.218;5.154;2022-09-03T00:18:36;101210.06;;;23.27;46.93
58311;BME280;45001;52.218;5.154;2022-09-03T00:21:13;101212.78;;;23.27;46.93
58311;BME280;45001;52.218;5.154;2022-09-03T00:23:41;101200.22;;;23.26;46.88
58311;BME280;45001;52.218;5.154;2022-09-03T00:28:43;101202.09;;;23.25;46.97
58311;BME280;45001;52.218;5.154;2022-09-03T00:31:15;101202.09;;;23.25;46.85
58311;BME280;45001;52.218;5.154;2022-09-03T00:33:43;101199.38;;;23.25;46.95
58311;BME280;45001;52.218;5.154;2022-09-03T00:36:22;101192.28;;;23.24;47.17
58311;BME280;45001;52.218;5.154;2022-09-03T00:38:50;101192.28;;;23.24;46.99
58311;BME280;45001;52.218;5.154;2022-09-03T00:44:39;101200.44;;;23.24;46.86
58311;BME280;45001;52.218;5.154;2022-09-03T00:47:19;101191.44;;;23.23;46.97
58311;BME280;45001;52.218;5.154;2022-09-03T00:50:05;101193.34;;;23.23;47.00
58311;BME280;45001;52.218;5.154;2022-09-03T00:52:49;101192.53;;;23.22;46.86
58311;BME280;45001;52.218;5.154;2022-09-03T01:00:40;101186.22;;;23.22;46.93
58311;BME280;45001;52.218;5.154;2022-09-03T01:03:16;101190.84;;;23.21;46.90
58311;BME280;45001;52.218;5.154;2022-09-03T01:05:56;101191.66;;;23.22;46.95
58311;BME280;45001;52.218;5.154;2022-09-03T01:08:47;101191.91;;;23.20;46.95
58311;BME280;45001;52.218;5.154;2022-09-03T01:11:38;101185.63;;;23.20;46.96
58311;BME280;45001;52.218;5.154;2022-09-03T01:16:56;101190.25;;;23.19;46.84
58311;BME280;45001;52.218;5.154;2022-09-03T01:19:44;101188.34;;;23.20;46.82
58311;BME280;45001;52.218;5.154;2022-09-03T01:25:48;101194.88;;;23.19;46.71
58311;BME280;45001;52.218;5.154;2022-09-03T01:28:38;101193.19;;;23.18;46.80
58311;BME280;45001;52.218;5.154;2022-09-03T01:36:36;101198.63;;;23.18;46.65
58311;BME280;45001;52.218;5.154;2022-09-03T01:39:05;101203.25;;;23.17;46.70
58311;BME280;45001;52.218;5.154;2022-09-03T01:41:56;101196.13;;;23.16;46.63
58311;BME280;45001;52.218;5.154;2022-09-03T01:44:57;101199.69;;;23.17;46.61
58311;BME280;45001;52.218;5.154;2022-09-03T01:50:11;101191.75;;;23.15;46.62
58311;BME280;45001;52.218;5.154;2022-09-03T01:53:39;101198.03;;;23.16;46.62
58311;BME280;45001;52.218;5.154;2022-09-03T02:00:39;101199.09;;;23.15;46.56
58311;BME280;45001;52.218;5.154;2022-09-03T02:03:08;101203.69;;;23.14;46.52
58311;BME280;45001;52.218;5.154;2022-09-03T02:05:35;101200.16;;;23.14;46.44
58311;BME280;45001;52.218;5.154;2022-09-03T02:08:06;101198.25;;;23.14;46.44
58311;BME280;45001;52.218;5.154;2022-09-03T02:10:44;101196.59;;;23.13;46.41
58311;BME280;45001;52.218;5.154;2022-09-03T02:15:43;101195.75;;;23.13;45.92
58311;BME280;45001;52.218;5.154;2022-09-03T02:18:32;101190.31;;;23.13;46.08
58311;BME280;45001;52.218;5.154;2022-09-03T02:21:00;101189.47;;;23.12;46.25
58311;BME280;45001;52.218;5.154;2022-09-03T02:23:26;101190.31;;;23.13;46.34
58311;BME280;45001;52.218;5.154;2022-09-03T02:25:57;101180.50;;;23.12;46.46
58311;BME280;45001;52.218;5.154;2022-09-03T02:28:22;101187.84;;;23.11;46.51
58311;BME280;45001;52.218;5.154;2022-09-03T02:30:48;101185.34;;;23.10;46.04
58311;BME280;45001;52.218;5.154;2022-09-03T02:33:14;101190.78;;;23.10;46.04
58311;BME280;45001;52.218;5.154;2022-09-03T02:35:40;101186.16;;;23.10;46.10
58311;BME280;45001;52.218;5.154;2022-09-03T02:38:10;101191.59;;;23.10;46.11
58311;BME280;45001;52.218;5.154;2022-09-03T02:40:36;101182.63;;;23.10;45.89
58311;BME280;45001;52.218;5.154;2022-09-03T02:43:02;101177.41;;;23.08;45.88
58311;BME280;45001;52.218;5.154;2022-09-03T02:45:30;101179.03;;;23.09;45.54
58311;BME280;45001;52.218;5.154;2022-09-03T02:47:58;101175.50;;;23.09;45.29
58311;BME280;45001;52.218;5.154;2022-09-03T02:50:25;101179.28;;;23.08;45.38
58311;BME280;45001;52.218;5.154;2022-09-03T02:52:51;101168.41;;;23.08;45.44
58311;BME280;45001;52.218;5.154;2022-09-03T02:55:17;101179.03;;;23.09;45.61
58311;BME280;45001;52.218;5.154;2022-09-03T02:57:43;101172.78;;;23.09;45.43
58311;BME280;45001;52.218;5.154;2022-09-03T03:00:08;101172.19;;;23.07;45.19
58311;BME280;45001;52.218;5.154;2022-09-03T03:02:34;101174.91;;;23.07;45.30
58311;BME280;45001;52.218;5.154;2022-09-03T03:04:59;101170.53;;;23.06;45.31
58311;BME280;45001;52.218;5.154;2022-09-03T03:07:24;101174.06;;;23.06;45.30
58311;BME280;45001;52.218;5.154;2022-09-03T03:09:50;101173.25;;;23.06;45.38
58311;BME280;45001;52.218;5.154;2022-09-03T03:12:16;101166.13;;;23.05;45.18
58311;BME280;45001;52.218;5.154;2022-09-03T03:14:42;101173.25;;;23.06;45.39
58311;BME280;45001;52.218;5.154;2022-09-03T03:17:07;101168.84;;;23.05;45.27
58311;BME280;45001;52.218;5.154;2022-09-03T03:19:33;101168.84;;;23.05;45.14
58311;BME280;45001;52.218;5.154;2022-09-03T03:21:58;101171.56;;;23.05;45.05
58311;BME280;45001;52.218;5.154;2022-09-03T03:24:24;101163.59;;;23.03;45.31
58311;BME280;45001;52.218;5.154;2022-09-03T03:26:49;101163.59;;;23.03;45.46
58311;BME280;45001;52.218;5.154;2022-09-03T03:29:15;101163.59;;;23.03;45.29
58311;BME280;45001;52.218;5.154;2022-09-03T03:31:42;101168.22;;;23.02;45.40
58311;BME280;45001;52.218;5.154;2022-09-03T03:34:07;101167.19;;;23.03;45.39
58311;BME280;45001;52.218;5.154;2022-09-03T03:36:33;101164.69;;;23.02;45.08
58311;BME280;45001;52.218;5.154;2022-09-03T03:38:59;101164.69;;;23.02;45.18
58311;BME280;45001;52.218;5.154;2022-09-03T03:41:33;101164.91;;;23.00;45.22
58311;BME280;45001;52.218;5.154;2022-09-03T03:44:02;101168.44;;;23.01;45.32
58311;BME280;45001;52.218;5.154;2022-09-03T03:46:31;101162.19;;;23.00;45.35
58311;BME280;45001;52.218;5.154;2022-09-03T03:48:57;101169.28;;;23.01;45.19
58311;BME280;45001;52.218;5.154;2022-09-03T03:51:22;101182.03;;;23.01;45.30
58311;BME280;45001;52.218;5.154;2022-09-03T03:53:47;101181.22;;;23.00;45.36
58311;BME280;45001;52.218;5.154;2022-09-03T03:56:14;101173.06;;;23.00;45.57
58311;BME280;45001;52.218;5.154;2022-09-03T03:58:41;101164.09;;;23.00;45.21
58311;BME280;45001;52.218;5.154;2022-09-03T04:01:16;101176.00;;;22.99;45.37
58311;BME280;45001;52.218;5.154;2022-09-03T04:03:43;101167.03;;;22.98;45.37
58311;BME280;45001;52.218;5.154;2022-09-03T04:06:11;101167.03;;;22.98;45.33
58311;BME280;45001;52.218;5.154;2022-09-03T04:08:39;101167.03;;;22.98;45.15
58311;BME280;45001;52.218;5.154;2022-09-03T04:11:07;101172.47;;;22.98;44.99
58311;BME280;45001;52.218;5.154;2022-09-03T04:13:35;101172.47;;;22.98;45.04
58311;BME280;45001;52.218;5.154;2022-09-03T04:16:11;101167.25;;;22.97;44.87
58311;BME280;45001;52.218;5.154;2022-09-03T04:18:37;101165.34;;;22.97;44.94
58311;BME280;45001;52.218;5.154;2022-09-03T04:21:06;101163.69;;;22.96;44.82
58311;BME280;45001;52.218;5.154;2022-09-03T04:23:37;101162.03;;;22.95;45.07
58311;BME280;45001;52.218;5.154;2022-09-03T04:26:04;101162.03;;;22.95;45.04
58311;BME280;45001;52.218;5.154;2022-09-03T04:28:31;101159.31;;;22.95;45.09
58311;BME280;45001;52.218;5.154;2022-09-03T04:31:04;101159.31;;;22.95;44.78
58311;BME280;45001;52.218;5.154;2022-09-03T04:33:31;101166.63;;;22.95;44.99
58311;BME280;45001;52.218;5.154;2022-09-03T04:36:08;101163.06;;;22.94;44.88
58311;BME280;45001;52.218;5.154;2022-09-03T04:38:35;101163.06;;;22.94;44.86
58311;BME280;45001;52.218;5.154;2022-09-03T04:41:01;101159.53;;;22.94;44.91
58311;BME280;45001;52.218;5.154;2022-09-03T04:43:27;101157.88;;;22.93;44.98
58311;BME280;45001;52.218;5.154;2022-09-03T04:46:00;101158.69;;;22.93;44.87
58311;BME280;45001;52.218;5.154;2022-09-03T04:48:28;101159.75;;;22.92;44.67
58311;BME280;45001;52.218;5.154;2022-09-03T04:50:54;101166.03;;;22.93;44.77
58311;BME280;45001;52.218;5.154;2022-09-03T04:53:20;101157.03;;;22.92;44.81
58311;BME280;45001;52.218;5.154;2022-09-03T04:55:46;101158.09;;;22.91;45.00
58311;BME280;45001;52.218;5.154;2022-09-03T04:58:12;101167.06;;;22.92;44.87
58311;BME280;45001;52.218;5.154;2022-09-03T05:00:37;101160.81;;;22.91;44.56
58311;BME280;45001;52.218;5.154;2022-09-03T05:03:03;101164.34;;;22.92;44.62
58311;BME280;45001;52.218;5.154;2022-09-03T05:05:32;101159.13;;;22.90;44.62
58311;BME280;45001;52.218;5.154;2022-09-03T05:07:58;101163.75;;;22.90;45.13
58311;BME280;45001;52.218;5.154;2022-09-03T05:10:26;101150.16;;;22.90;44.69
58311;BME280;45001;52.218;5.154;2022-09-03T05:13:02;101153.91;;;22.89;44.94
58311;BME280;45001;52.218;5.154;2022-09-03T05:15:28;101158.31;;;22.90;44.83
58311;BME280;45001;52.218;5.154;2022-09-03T05:18:01;101155.81;;;22.88;44.93
58311;BME280;45001;52.218;5.154;2022-09-03T05:20:28;101161.25;;;22.88;44.94
58311;BME280;45001;52.218;5.154;2022-09-03T05:22:55;101165.03;;;22.87;44.92
58311;BME280;45001;52.218;5.154;2022-09-03T05:25:22;101163.97;;;22.88;45.22
58311;BME280;45001;52.218;5.154;2022-09-03T05:27:47;101159.59;;;22.87;44.96
58311;BME280;45001;52.218;5.154;2022-09-03T05:30:14;101156.88;;;22.87;45.21
58311;BME280;45001;52.218;5.154;2022-09-03T05:32:41;101156.03;;;22.87;45.10
58311;BME280;45001;52.218;5.154;2022-09-03T05:35:08;101157.94;;;22.86;45.22
58311;BME280;45001;52.218;5.154;2022-09-03T05:37:35;101162.53;;;22.86;45.28
58311;BME280;45001;52.218;5.154;2022-09-03T05:40:01;101156.28;;;22.85;45.02
58311;BME280;45001;52.218;5.154;2022-09-03T05:42:26;101155.22;;;22.86;45.07
58311;BME280;45001;52.218;5.154;2022-09-03T05:44:52;101159.00;;;22.85;45.09
58311;BME280;45001;52.218;5.154;2022-09-03T05:47:18;101161.72;;;22.85;45.32
58311;BME280;45001;52.218;5.154;2022-09-03T05:49:44;101154.00;;;22.82;43.45
58311;BME280;45001;52.218;5.154;2022-09-03T05:52:09;101153.22;;;22.75;41.99
58311;BME280;45001;52.218;5.154;2022-09-03T05:54:34;101151.44;;;22.69;41.67
58311;BME280;45001;52.218;5.154;2022-09-03T05:57:00;101151.66;;;22.67;41.61
58311;BME280;45001;52.218;5.154;2022-09-03T05:59:25;101157.50;;;22.64;41.60
58311;BME280;45001;52.218;5.154;2022-09-03T06:01:51;101164.03;;;22.63;41.58
58311;BME280;45001;52.218;5.154;2022-09-03T06:04:16;101152.94;;;22.64;41.70
58311;BME280;45001;52.218;5.154;2022-09-03T06:06:43;101149.81;;;22.61;40.97
58311;BME280;45001;52.218;5.154;2022-09-03T06:09:17;101159.25;;;22.58;41.15
58311;BME280;45001;52.218;5.154;2022-09-03T06:11:43;101160.69;;;22.61;40.38
58311;BME280;45001;52.218;5.154;2022-09-03T06:14:11;101169.50;;;22.56;40.51
58311;BME280;45001;52.218;5.154;2022-09-03T06:16:44;101152.59;;;22.54;40.31
58311;BME280;45001;52.218;5.154;2022-09-03T06:19:11;101162.63;;;22.54;40.11
58311;BME280;45001;52.218;5.154;2022-09-03T06:21:40;101157.19;;;22.54;40.09
58311;BME280;45001;52.218;5.154;2022-09-03T06:24:10;101163.47;;;22.54;40.08
58311;BME280;45001;52.218;5.154;2022-09-03T06:26:36;101167.22;;;22.53;40.09
58311;BME280;45001;52.218;5.154;2022-09-03T06:29:03;101164.28;;;22.55;40.38
58311;BME280;45001;52.218;5.154;2022-09-03T06:31:29;101159.84;;;22.60;41.28
58311;BME280;45001;52.218;5.154;2022-09-03T06:33:54;101161.09;;;22.64;41.56
58311;BME280;45001;52.218;5.154;2022-09-03T06:36:22;101156.00;;;22.68;41.83
58311;BME280;45001;52.218;5.154;2022-09-03T06:38:51;101164.78;;;22.70;41.69
58311;BME280;45001;52.218;5.154;2022-09-03T06:41:18;101172.94;;;22.70;42.28
58311;BME280;45001;52.218;5.154;2022-09-03T06:43:45;101168.34;;;22.71;42.77
58311;BME280;45001;52.218;5.154;2022-09-03T06:46:15;101164.53;;;22.72;42.77
58311;BME280;45001;52.218;5.154;2022-09-03T06:48:41;101169.97;;;22.72;42.72
58311;BME280;45001;52.218;5.154;2022-09-03T06:51:09;101168.94;;;22.73;43.03
58311;BME280;45001;52.218;5.154;2022-09-03T06:53:37;101162.69;;;22.72;43.21
58311;BME280;45001;52.218;5.154;2022-09-03T06:56:08;101161.81;;;22.72;43.35
58311;BME280;45001;52.218;5.154;2022-09-03T06:58:36;101168.94;;;22.73;43.45
58311;BME280;45001;52.218;5.154;2022-09-03T07:01:22;101176.03;;;22.74;43.53
58311;BME280;45001;52.218;5.154;2022-09-03T07:03:52;101171.66;;;22.73;43.68
58311;BME280;45001;52.218;5.154;2022-09-03T07:06:22;101174.38;;;22.73;43.89
58311;BME280;45001;52.218;5.154;2022-09-03T07:08:48;101172.47;;;22.73;43.90
58311;BME280;45001;52.218;5.154;2022-09-03T07:11:15;101175.19;;;22.73;43.82
58311;BME280;45001;52.218;5.154;2022-09-03T07:13:44;101174.97;;;22.75;44.00
58311;BME280;45001;52.218;5.154;2022-09-03T07:16:12;101181.25;;;22.75;44.03
58311;BME280;45001;52.218;5.154;2022-09-03T07:18:38;101184.81;;;22.76;44.10
58311;BME280;45001;52.218;5.154;2022-09-03T07:21:07;101183.13;;;22.75;44.17
58311;BME280;45001;52.218;5.154;2022-09-03T07:23:34;101181.25;;;22.75;44.26
58311;BME280;45001;52.218;5.154;2022-09-03T07:26:01;101179.38;;;22.76;44.21
58311;BME280;45001;52.218;5.154;2022-09-03T07:28:27;101179.38;;;22.76;44.32
58311;BME280;45001;52.218;5.154;2022-09-03T07:30:54;101165.78;;;22.76;44.34
58311;BME280;45001;52.218;5.154;2022-09-03T07:33:24;101166.81;;;22.75;44.17
58311;BME280;45001;52.218;5.154;2022-09-03T07:35:49;101175.81;;;22.75;44.39
58311;BME280;45001;52.218;5.154;2022-09-03T07:38:18;101174.75;;;22.76;44.28
58311;BME280;45001;52.218;5.154;2022-09-03T07:40:48;101172.03;;;22.76;44.54
58311;BME280;45001;52.218;5.154;2022-09-03T07:43:13;101173.94;;;22.76;44.42
58311;BME280;45001;52.218;5.154;2022-09-03T07:45:38;101175.59;;;22.77;44.46
58311;BME280;45001;52.218;5.154;2022-09-03T07:48:04;101178.31;;;22.77;44.58
58311;BME280;45001;52.218;5.154;2022-09-03T07:50:29;101181.03;;;22.77;44.41
58311;BME280;45001;52.218;5.154;2022-09-03T07:53:03;101184.56;;;22.77;44.60
58311;BME280;45001;52.218;5.154;2022-09-03T07:55:30;101184.34;;;22.79;44.70
58311;BME280;45001;52.218;5.154;2022-09-03T07:57:55;101173.47;;;22.79;44.67
58311;BME280;45001;52.218;5.154;2022-09-03T08:00:21;101178.91;;;22.79;44.76
58311;BME280;45001;52.218;5.154;2022-09-03T08:02:46;101185.19;;;22.79;44.70
58311;BME280;45001;52.218;5.154;2022-09-03T08:05:11;101186.84;;;22.80;44.76
58311;BME280;45001;52.218;5.154;2022-09-03T08:07:37;101186.03;;;22.80;44.71
58311;BME280;45001;52.218;5.154;2022-09-03T08:10:02;101186.03;;;22.80;44.80
58311;BME280;45001;52.218;5.154;2022-09-03T08:12:30;101192.28;;;22.80;44.76
58311;BME280;45001;52.218;5.154;2022-09-03T08:14:57;101195.81;;;22.81;44.84
58311;BME280;45001;52.218;5.154;2022-09-03T08:17:22;101193.09;;;22.81;44.87
58311;BME280;45001;52.218;5.154;2022-09-03T08:19:47;101188.53;;;22.81;44.88
58311;BME280;45001;52.218;5.154;2022-09-03T08:22:13;101190.38;;;22.81;44.92
58311;BME280;45001;52.218;5.154;2022-09-03T08:24:38;101189.34;;;22.82;45.19
58311;BME280;45001;52.218;5.154;2022-09-03T08:27:04;101198.31;;;22.82;44.89
58311;BME280;45001;52.218;5.154;2022-09-03T08:29:29;101195.59;;;22.82;45.03
58311;BME280;45001;52.218;5.154;2022-09-03T08:31:55;101200.00;;;22.83;45.12
58311;BME280;45001;52.218;5.154;2022-09-03T08:34:20;101200.00;;;22.83;45.14
58311;BME280;45001;52.218;5.154;2022-09-03T08:36:46;101202.72;;;22.83;45.26
58311;BME280;45001;52.218;5.154;2022-09-03T08:39:12;101193.72;;;22.83;45.09
58311;BME280;45001;52.218;5.154;2022-09-03T08:44:28;101193.50;;;22.84;45.36
58311;BME280;45001;52.218;5.154;2022-09-03T08:54:51;101194.34;;;22.85;45.59
58311;BME280;45001;52.218;5.154;2022-09-03T08:57:20;101197.06;;;22.85;45.67
58311;BME280;45001;52.218;5.154;2022-09-03T08:59:50;101194.34;;;22.85;45.40
58311;BME280;45001;52.218;5.154;2022-09-03T09:04:52;101204.16;;;22.86;45.79
58311;BME280;45001;52.218;5.154;2022-09-03T09:07:30;101196.00;;;22.86;45.80
58311;BME280;45001;52.218;5.154;2022-09-03T09:10:19;101191.38;;;22.87;45.86
58311;BME280;45001;52.218;5.154;2022-09-03T09:16:16;101193.88;;;22.88;45.93
58311;BME280;45001;52.218;5.154;2022-09-03T09:21:41;101198.50;;;22.88;46.10
58311;BME280;45001;52.218;5.154;2022-09-03T09:24:20;101197.66;;;22.87;46.26
58311;BME280;45001;52.218;5.154;2022-09-03T09:26:47;101204.53;;;22.90;46.22
58311;BME280;45001;52.218;5.154;2022-09-03T09:29:14;101194.69;;;22.89;46.35
58311;BME280;45001;52.218;5.154;2022-09-03T09:31:40;101195.56;;;22.89;46.40
58311;BME280;45001;52.218;5.154;2022-09-03T09:34:09;101190.13;;;22.89;46.31
58311;BME280;45001;52.218;5.154;2022-09-03T09:36:44;101189.03;;;22.90;46.31
58311;BME280;45001;52.218;5.154;2022-09-03T09:39:11;101186.31;;;22.90;46.49
58311;BME280;45001;52.218;5.154;2022-09-03T09:41:40;101183.59;;;22.90;46.74
58311;BME280;45001;52.218;5.154;2022-09-03T09:44:06;101189.03;;;22.90;46.67
58311;BME280;45001;52.218;5.154;2022-09-03T09:46:34;101192.63;;;22.91;46.57
58311;BME280;45001;52.218;5.154;2022-09-03T09:49:01;101192.84;;;22.89;46.78
58311;BME280;45001;52.218;5.154;2022-09-03T09:51:28;101183.00;;;22.88;46.58
58311;BME280;45001;52.218;5.154;2022-09-03T09:54:17;101184.69;;;22.89;46.84
58311;BME280;45001;52.218;5.154;2022-09-03T09:56:43;101187.41;;;22.89;46.79
58311;BME280;45001;52.218;5.154;2022-09-03T09:59:10;101192.84;;;22.89;46.72
58311;BME280;45001;52.218;5.154;2022-09-03T10:01:40;101193.44;;;22.91;46.86
58311;BME280;45001;52.218;5.154;2022-09-03T10:04:28;101195.34;;;22.91;46.87
58311;BME280;45001;52.218;5.154;2022-09-03T10:06:56;101191.75;;;22.90;46.77
58311;BME280;45001;52.218;5.154;2022-09-03T10:09:27;101188.00;;;22.91;47.13
58311;BME280;45001;52.218;5.154;2022-09-03T10:14:43;101189.66;;;22.92;47.27
58311;BME280;45001;52.218;5.154;2022-09-03T10:17:28;101184.22;;;22.92;47.27
58311;BME280;45001;52.218;5.154;2022-09-03T10:20:10;101179.63;;;22.93;47.42
58311;BME280;45001;52.218;5.154;2022-09-03T10:22:59;101178.06;;;23.03;48.13
58311;BME280;45001;52.218;5.154;2022-09-03T10:25:32;101178.69;;;23.06;48.00
58311;BME280;45001;52.218;5.154;2022-09-03T10:28:00;101174.72;;;23.01;48.32
58311;BME280;45001;52.218;5.154;2022-09-03T10:30:27;101178.50;;;23.00;48.58
58311;BME280;45001;52.218;5.154;2022-09-03T10:33:09;101168.44;;;23.01;48.72
58311;BME280;45001;52.218;5.154;2022-09-03T10:35:42;101171.16;;;23.01;48.51
58311;BME280;45001;52.218;5.154;2022-09-03T10:38:26;101178.16;;;23.15;50.52
58311;BME280;45001;52.218;5.154;2022-09-03T10:41:03;101172.41;;;23.05;49.90
58311;BME280;45001;52.218;5.154;2022-09-03T10:46:25;101166.53;;;23.01;49.88
58311;BME280;45001;52.218;5.154;2022-09-03T10:49:18;101166.53;;;23.01;49.72
58311;BME280;45001;52.218;5.154;2022-09-03T10:51:55;101162.19;;;23.00;49.47
58311;BME280;45001;52.218;5.154;2022-09-03T10:54:44;101164.47;;;23.03;49.98
58311;BME280;45001;52.218;5.154;2022-09-03T10:57:38;101165.91;;;23.25;51.46
58311;BME280;45001;52.218;5.154;2022-09-03T11:00:08;101161.84;;;23.34;52.74
58311;BME280;45001;52.218;5.154;2022-09-03T11:02:54;101165.31;;;23.22;52.91
58311;BME280;45001;52.218;5.154;2022-09-03T11:05:28;101156.84;;;23.12;53.34
58311;BME280;45001;52.218;5.154;2022-09-03T11:08:07;101159.00;;;23.40;52.80
58311;BME280;45001;52.218;5.154;2022-09-03T11:10:38;101165.22;;;23.78;50.60
58311;BME280;45001;52.218;5.154;2022-09-03T11:13:09;101165.91;;;23.92;49.85
58311;BME280;45001;52.218;5.154;2022-09-03T11:15:47;101162.03;;;23.51;50.57
58311;BME280;45001;52.218;5.154;2022-09-03T11:19:01;101162.06;;;23.32;50.73
58311;BME280;45001;52.218;5.154;2022-09-03T11:21:09;101160.09;;;23.21;50.71
58311;BME280;45001;52.218;5.154;2022-09-03T11:23:40;101154.28;;;23.17;50.83
58311;BME280;45001;52.218;5.154;2022-09-03T11:26:09;101163.97;;;23.13;50.67
58311;BME280;45001;52.218;5.154;2022-09-03T11:34:11;101144.53;;;23.10;50.47
58311;BME280;45001;52.218;5.154;2022-09-03T11:36:38;101148.31;;;23.09;50.29
58311;BME280;45001;52.218;5.154;2022-09-03T11:39:33;101145.59;;;23.09;50.19
58311;BME280;45001;52.218;5.154;2022-09-03T11:42:00;101141.81;;;23.10;50.23
58311;BME280;45001;52.218;5.154;2022-09-03T11:44:40;101142.88;;;23.09;49.83
58311;BME280;45001;52.218;5.154;2022-09-03T11:47:39;101138.25;;;23.09;50.27
58311;BME280;45001;52.218;5.154;2022-09-03T11:50:26;101135.78;;;23.08;50.15
58311;BME280;45001;52.218;5.154;2022-09-03T11:52:54;101140.97;;;23.09;50.42
58311;BME280;45001;52.218;5.154;2022-09-03T11:58:45;101138.56;;;23.19;51.16
58311;BME280;45001;52.218;5.154;2022-09-03T12:01:15;101141.34;;;23.13;50.50
58311;BME280;45001;52.218;5.154;2022-09-03T12:03:48;101140.16;;;23.09;50.64
58311;BME280;45001;52.218;5.154;2022-09-03T12:17:54;101140.16;;;23.09;50.87
58311;BME280;45001;52.218;5.154;2022-09-03T12:20:39;101144.31;;;23.11;51.25
58311;BME280;45001;52.218;5.154;2022-09-03T12:23:06;101139.09;;;23.10;50.65
58311;BME280;45001;52.218;5.154;2022-09-03T12:25:31;101144.31;;;23.11;51.62
58311;BME280;45001;52.218;5.154;2022-09-03T12:27:59;101137.22;;;23.10;50.86
58311;BME280;45001;52.218;5.154;2022-09-03T12:30:27;101151.72;;;23.22;52.06
58311;BME280;45001;52.218;5.154;2022-09-03T12:33:04;101144.66;;;23.33;53.01
58311;BME280;45001;52.218;5.154;2022-09-03T12:35:30;101142.88;;;23.27;53.24
58311;BME280;45001;52.218;5.154;2022-09-03T12:37:55;101140.91;;;23.16;52.73
58311;BME280;45001;52.218;5.154;2022-09-03T12:40:23;101135.09;;;23.12;52.25
58311;BME280;45001;52.218;5.154;2022-09-03T12:42:50;101133.44;;;23.11;52.16
58311;BME280;45001;52.218;5.154;2022-09-03T12:45:21;101136.38;;;23.10;51.96
58311;BME280;45001;52.218;5.154;2022-09-03T12:47:47;101149.75;;;23.11;51.83
58311;BME280;45001;52.218;5.154;2022-09-03T12:50:21;101148.09;;;23.10;51.74
58311;BME280;45001;52.218;5.154;2022-09-03T12:52:52;101140.97;;;23.09;51.37
58311;BME280;45001;52.218;5.154;2022-09-03T12:55:31;101139.09;;;23.10;51.46
58311;BME280;45001;52.218;5.154;2022-09-03T13:00:40;101137.44;;;23.09;51.00
58311;BME280;45001;52.218;5.154;2022-09-03T13:03:13;101137.66;;;23.07;50.91
58311;BME280;45001;52.218;5.154;2022-09-03T13:05:45;101137.66;;;23.07;50.72
58311;BME280;45001;52.218;5.154;2022-09-03T13:08:18;101145.59;;;23.09;50.56
58311;BME280;45001;52.218;5.154;2022-09-03T13:10:44;101141.81;;;23.10;50.67
58311;BME280;45001;52.218;5.154;2022-09-03T13:13:24;101144.75;;;23.08;50.76
58311;BME280;45001;52.218;5.154;2022-09-03T13:16:06;101130.94;;;23.10;50.83
58311;BME280;45001;52.218;5.154;2022-09-03T13:32:36;101139.94;;;23.10;50.59
58311;BME280;45001;52.218;5.154;2022-09-03T13:35:51;101137.81;;;23.12;50.46
58311;BME280;45001;52.218;5.154;2022-09-03T13:38:37;101144.06;;;23.13;50.30
58311;BME280;45001;52.218;5.154;2022-09-03T13:41:28;101130.72;;;23.11;50.36
58311;BME280;45001;52.218;5.154;2022-09-03T13:44:34;101131.53;;;23.12;50.26
58311;BME280;45001;52.218;5.154;2022-09-03T13:47:10;101128.00;;;23.11;50.16
58311;BME280;45001;52.218;5.154;2022-09-03T13:49:56;101129.03;;;23.10;50.19
58311;BME280;45001;52.218;5.154;2022-09-03T13:53:08;101132.59;;;23.11;49.94
58311;BME280;45001;52.218;5.154;2022-09-03T13:55:45;101135.09;;;23.12;49.97
58311;BME280;45001;52.218;5.154;2022-09-03T13:58:28;101135.91;;;23.13;49.89
58311;BME280;45001;52.218;5.154;2022-09-03T14:03:47;101115.00;;;23.13;49.79
58311;BME280;45001;52.218;5.154;2022-09-03T14:06:37;101121.25;;;23.14;49.80
58311;BME280;45001;52.218;5.154;2022-09-03T14:12:03;101122.94;;;23.15;49.49
58311;BME280;45001;52.218;5.154;2022-09-03T14:14:33;101117.50;;;23.15;49.73
58311;BME280;45001;52.218;5.154;2022-09-03T14:19:59;101130.03;;;23.16;49.70
58311;BME280;45001;52.218;5.154;2022-09-03T14:25:16;101128.13;;;23.16;49.58
58311;BME280;45001;52.218;5.154;2022-09-03T14:27:42;101121.88;;;23.16;49.43
58311;BME280;45001;52.218;5.154;2022-09-03T14:30:40;101123.53;;;23.17;49.46
58311;BME280;45001;52.218;5.154;2022-09-03T14:33:19;101126.25;;;23.17;49.57
58311;BME280;45001;52.218;5.154;2022-09-03T14:35:54;101132.53;;;23.17;49.53
58311;BME280;45001;52.218;5.154;2022-09-03T14:38:59;101122.47;;;23.18;49.49
58311;BME280;45001;52.218;5.154;2022-09-03T14:49:49;101119.53;;;23.19;49.53
58311;BME280;45001;52.218;5.154;2022-09-03T15:01:00;101129.09;;;23.22;49.63
58311;BME280;45001;52.218;5.154;2022-09-03T15:03:58;101129.97;;;23.22;49.65
58311;BME280;45001;52.218;5.154;2022-09-03T15:07:17;101125.34;;;23.23;49.72
58311;BME280;45001;52.218;5.154;2022-09-03T15:10:00;101132.44;;;23.24;49.87
58311;BME280;45001;52.218;5.154;2022-09-03T15:12:34;101130.56;;;23.25;49.84
58311;BME280;45001;52.218;5.154;2022-09-03T15:15:16;101122.41;;;23.25;49.88
58311;BME280;45001;52.218;5.154;2022-09-03T15:17:59;101128.66;;;23.25;49.92
58311;BME280;45001;52.218;5.154;2022-09-03T15:20:41;101131.38;;;23.25;49.92